METAR Data

Data at: 1132 UTC 21 Apr 2021

METAR for:KTAN (Taunton Muni, MA, US)
Text:KTAN 211052Z AUTO 15004KT 10SM CLR 10/08 A2984 RMK AO2 SLP105 T01000078
Temperature: 10.0°C ( 50°F)
Dewpoint: 7.8°C ( 46°F) [RH = 86%]
Pressure (altimeter):29.84 inches Hg (1010.6 mb) [Sea level pressure: 1010.5 mb]
Winds:from the SSE (150 degrees) at 5 MPH (4 knots; 2.1 m/s)
Visibility:10 or more sm (16+ km)
Ceiling:at least 12,000 feet AGL
Clouds:sky clear below 12,000 feet AGL
QC Flag:automated observation with no human augmentation